Portada
METAR-TAF:

METAR-TAF

Aeroports :

Pontoise, França

latitud: 49-05-48N, longitud: 002-02-27E, altitud: 99 m

Observació

L'informe es va fer fa 17 minuts, a les 16:30 UTC
Vent 6 kt del Sud-Oest
Temperatura 10°C
Humitat 76%
Pressió 1017 hPa
Visibilitat 10 km o més
Cel cobert a una alçada de 3800 ft

METAR: LFPT 071630Z AUTO 22006KT 9999 OVC038 10/06 Q1017

Hora: 17:47 (16:47 UTC)


TAF: manca

Observacions i pronòstics meteorològics de més de 4000 aeroports (METAR i TAF).

Les estacions disponibles són els punts grocs i vermells al mapa.

Posi el ratolí al punt desitjat per veure el nom de l'estació.

Feu clic per veure les observacions i els pronòstics meteorològics.

Per canviar el mapa: feu clic els botons verds amb una creu de color negre per apropar; al botó verd amb un guió per allunyar la imatge; o en les fletxes verdes per a mapes adjacents.


METAR-TAF: